Time;durP1;ratioP1;P1;durP2;ratioP2;P2;SDS_P1;SDS_P2;PMS_P1;PMS_P2;Temp;Humidity;BMP_temperature;BMP_pressure;BME280_temperature;BME280_humidity;BME280_pressure;Samples;Min_cycle;Max_cycle;Signal;HPM_P1;HPM_P2
2022/09/11 00:02:15;;;;;;;66.85;30.98;;;;;;;12.71;100.00;101620.47;4955561;29;20082;-78
2022/09/11 00:08:02;;;;;;;64.05;29.75;;;;;;;12.60;100.00;101621.09;4956733;28;20054;-77
2022/09/11 00:13:50;;;;;;;61.35;29.92;;;;;;;12.58;100.00;101622.34;4955484;29;20278;-76
2022/09/11 00:19:40;;;;;;;73.07;31.65;;;;;;;12.59;100.00;101632.03;4955628;29;20459;-76
2022/09/11 00:22:05;;;;;;;73.00;33.05;;;;;;;12.52;100.00;101620.50;4953350;28;20039;-77
2022/09/11 00:27:52;;;;;;;59.47;28.63;;;;;;;12.47;100.00;101633.72;4954568;28;20050;-76
2022/09/11 00:33:40;;;;;;;64.60;31.35;;;;;;;12.40;100.00;101645.25;4955148;29;20632;-76
2022/09/11 00:36:11;;;;;;;65.93;27.80;;;;;;;12.38;100.00;101638.44;4957909;28;20047;-77
2022/09/11 00:38:38;;;;;;;57.33;27.35;;;;;;;12.34;100.00;101629.97;4954926;29;20035;-77
2022/09/11 00:44:25;;;;;;;59.22;26.55;;;;;;;12.27;100.00;101639.06;4955569;29;20530;-76
2022/09/11 00:46:59;;;;;;;57.40;24.67;;;;;;;12.21;100.00;101642.56;4954930;28;20062;-76
2022/09/11 00:49:37;;;;;;;47.67;26.17;;;;;;;12.21;100.00;101648.75;4953526;29;20036;-76
2022/09/11 00:55:28;;;;;;;50.53;26.25;;;;;;;12.06;100.00;101635.53;4955237;29;20049;-76
2022/09/11 00:58:06;;;;;;;54.20;27.13;;;;;;;12.11;100.00;101651.00;4954787;29;20062;-78
2022/09/11 01:03:54;;;;;;;55.00;25.08;;;;;;;12.10;100.00;101652.03;4954945;28;20054;-77
2022/09/11 01:09:42;;;;;;;75.65;33.55;;;;;;;12.12;100.00;101646.47;4955381;29;20584;-76
2022/09/11 01:15:40;;;;;;;84.18;34.25;;;;;;;12.22;100.00;101663.00;4954975;28;20102;-77
2022/09/11 01:22:05;;;;;;;97.63;38.40;;;;;;;12.34;100.00;101666.72;4954735;29;20121;-77
2022/09/11 01:24:40;;;;;;;88.65;38.83;;;;;;;12.27;100.00;101652.47;4953135;29;20060;-77
2022/09/11 01:30:39;;;;;;;89.10;36.53;;;;;;;12.26;100.00;101656.19;4954580;29;20050;-77
2022/09/11 01:33:14;;;;;;;101.85;39.33;;;;;;;12.31;100.00;101667.13;4957182;28;20043;-76
2022/09/11 01:39:03;;;;;;;110.93;39.83;;;;;;;12.27;100.00;101665.88;4954131;28;20097;-76
2022/09/11 01:41:44;;;;;;;101.78;40.92;;;;;;;12.22;100.00;101666.50;4952901;29;20035;-76
2022/09/11 01:44:23;;;;;;;97.07;38.88;;;;;;;12.20;100.00;101667.75;4956792;28;20058;-76
2022/09/11 01:46:51;;;;;;;95.15;37.97;;;;;;;12.21;100.00;101670.22;4952577;29;20019;-77
2022/09/11 01:52:44;;;;;;;98.38;37.60;;;;;;;12.19;100.00;101676.81;4954387;29;20141;-76
2022/09/11 01:55:19;;;;;;;97.97;38.58;;;;;;;12.12;100.00;101671.41;4952730;29;20031;-77
2022/09/11 01:57:59;;;;;;;99.60;40.33;;;;;;;12.06;100.00;101662.34;4952035;29;20043;-77
2022/09/11 02:00:24;;;;;;;95.03;38.45;;;;;;;12.10;100.00;101674.31;4952771;29;20046;-78
2022/09/11 02:03:25;;;;;;;101.57;39.47;;;;;;;12.08;100.00;101676.34;4956692;28;20051;-78
2022/09/11 02:06:01;;;;;;;73.30;31.95;;;;;;;11.98;100.00;101673.25;4946610;29;20042;-78
2022/09/11 02:08:36;;;;;;;72.63;31.80;;;;;;;11.94;100.00;101672.00;4953761;29;20126;-78
2022/09/11 02:11:08;;;;;;;72.95;31.00;;;;;;;11.84;100.00;101668.06;4948520;29;20078;-78
2022/09/11 02:13:44;;;;;;;79.23;32.03;;;;;;;11.76;100.00;101671.72;4953818;29;20034;-78
2022/09/11 02:19:31;;;;;;;68.93;29.48;;;;;;;11.66;100.00;101674.78;4953778;29;20081;-78
2022/09/11 02:21:57;;;;;;;69.43;30.87;;;;;;;11.64;100.00;101679.50;4951809;29;20122;-78
2022/09/11 02:24:24;;;;;;;72.97;31.48;;;;;;;11.64;100.00;101678.69;4953500;29;20739;-78
2022/09/11 02:26:59;;;;;;;74.10;32.92;;;;;;;11.66;100.00;101682.81;4953407;29;20043;-76
2022/09/11 02:29:25;;;;;;;72.68;32.97;;;;;;;11.58;100.00;101669.59;4951618;29;20047;-77
2022/09/11 02:31:52;;;;;;;80.32;31.65;;;;;;;11.51;100.00;101671.41;4953533;29;20041;-77
2022/09/11 02:34:25;;;;;;;73.55;32.45;;;;;;;11.59;100.00;101681.16;4956364;28;20058;-77
2022/09/11 02:36:59;;;;;;;79.90;32.90;;;;;;;11.62;100.00;101683.41;4952178;29;20125;-77
2022/09/11 02:39:49;;;;;;;97.82;28.30;;;;;;;11.59;100.00;101678.47;4952137;29;20182;-77
2022/09/11 02:42:26;;;;;;;79.78;28.10;;;;;;;11.56;100.00;101682.34;4956304;28;20106;-77
2022/09/11 02:51:43;;;;;;;55.78;26.75;;;;;;;11.41;100.00;101692.38;4955162;28;20042;-77
2022/09/11 02:54:18;;;;;;;74.38;31.00;;;;;;;11.38;100.00;101690.94;4954798;29;20051;-78
2022/09/11 02:57:04;;;;;;;69.90;27.75;;;;;;;11.37;100.00;101691.13;4955471;29;20039;-77
2022/09/11 02:59:43;;;;;;;61.45;27.67;;;;;;;11.32;100.00;101688.22;4959443;28;20103;-77
2022/09/11 03:02:12;;;;;;;60.55;26.88;;;;;;;11.33;100.00;101698.75;4956476;29;20387;-79
2022/09/11 03:07:59;;;;;;;61.17;27.15;;;;;;;11.22;100.00;101699.28;4956906;28;20058;-78
2022/09/11 03:10:26;;;;;;;88.88;33.60;;;;;;;11.21;100.00;101694.13;4956460;29;20027;-78
2022/09/11 03:12:51;;;;;;;87.82;31.67;;;;;;;11.18;100.00;101698.03;4959277;28;20039;-78
2022/09/11 03:15:19;;;;;;;158.77;33.05;;;;;;;11.22;100.00;101704.63;4954975;29;20434;-77
2022/09/11 03:17:44;;;;;;;147.68;34.05;;;;;;;11.15;100.00;101693.88;4959049;28;20047;-78
2022/09/11 03:20:10;;;;;;;129.48;32.90;;;;;;;11.23;100.00;101702.78;4954944;29;20503;-77
2022/09/11 03:22:35;;;;;;;100.47;29.10;;;;;;;11.18;100.00;101698.84;4956278;29;20043;-77
2022/09/11 03:25:00;;;;;;;121.40;30.30;;;;;;;11.20;100.00;101695.97;4959054;28;20058;-77
2022/09/11 03:27:26;;;;;;;101.82;27.90;;;;;;;11.17;100.00;101707.91;4954882;28;20281;-77
2022/09/11 03:29:52;;;;;;;100.72;27.75;;;;;;;11.11;100.00;101695.31;4957232;28;20097;-77
2022/09/11 03:32:17;;;;;;;66.07;26.50;;;;;;;11.06;100.00;101692.41;4954839;29;20113;-78
2022/09/11 03:38:04;;;;;;;105.63;27.58;;;;;;;11.10;100.00;101698.19;4956320;29;20189;-77
2022/09/11 03:40:30;;;;;;;133.35;28.67;;;;;;;11.10;100.00;101703.53;4955857;29;20035;-76
2022/09/11 03:42:55;;;;;;;116.35;31.27;;;;;;;11.08;100.00;101700.22;4954090;29;20066;-77
2022/09/11 03:45:20;;;;;;;105.33;29.50;;;;;;;11.12;100.00;101707.66;4954512;29;20114;-76
2022/09/11 03:54:38;;;;;;;102.55;31.20;;;;;;;11.22;100.00;101715.34;4955953;29;20098;-77
2022/09/11 03:57:04;;;;;;;89.15;29.55;;;;;;;11.23;100.00;101702.78;4955695;29;20035;-77
2022/09/11 03:59:30;;;;;;;74.13;29.00;;;;;;;11.33;100.00;101711.31;4955699;29;20038;-77
2022/09/11 04:01:55;;;;;;;124.25;33.38;;;;;;;11.33;100.00;101709.44;4958526;28;20488;-76
2022/09/11 04:04:21;;;;;;;80.25;30.08;;;;;;;11.32;100.00;101707.78;4954306;29;20031;-77
2022/09/11 04:06:46;;;;;;;123.07;30.30;;;;;;;11.33;100.00;101709.44;4958439;28;20042;-77
2022/09/11 04:12:33;;;;;;;91.45;28.58;;;;;;;11.30;100.00;101709.84;4955446;29;20325;-76
2022/09/11 04:14:59;;;;;;;100.40;28.80;;;;;;;11.33;100.00;101709.44;4955269;29;20031;-76
2022/09/11 04:20:46;;;;;;;81.20;29.55;;;;;;;11.28;100.00;101703.88;4955728;29;20102;-77
2022/09/11 04:23:11;;;;;;;75.53;26.60;;;;;;;11.25;100.00;101709.59;4954060;29;20384;-77
2022/09/11 04:25:37;;;;;;;101.30;28.70;;;;;;;11.25;100.00;101706.91;4957988;28;20051;-77
2022/09/11 04:28:03;;;;;;;64.13;27.83;;;;;;;11.21;100.00;101702.16;4953968;29;20309;-77
2022/09/11 04:30:29;;;;;;;81.38;28.48;;;;;;;11.19;100.00;101702.34;4955182;29;20055;-78
2022/09/11 04:32:54;;;;;;;72.18;28.88;;;;;;;11.22;100.00;101711.84;4953383;29;20075;-78
2022/09/11 04:35:19;;;;;;;76.20;28.70;;;;;;;11.20;100.00;101709.34;4955090;29;20463;-78
2022/09/11 04:37:44;;;;;;;90.70;29.87;;;;;;;11.14;100.00;101702.13;4954702;28;20298;-77
2022/09/11 04:40:10;;;;;;;78.13;28.43;;;;;;;11.09;100.00;101702.72;4955001;29;20279;-77
2022/09/11 04:42:35;;;;;;;72.93;27.17;;;;;;;11.07;100.00;101710.13;4955078;29;20312;-78
2022/09/11 04:45:01;;;;;;;100.22;26.92;;;;;;;11.02;100.00;101709.06;4957739;28;20126;-78
2022/09/11 04:50:47;;;;;;;63.97;25.48;;;;;;;10.91;100.00;101714.91;4955035;29;20108;-74
2022/09/11 04:53:13;;;;;;;63.40;26.17;;;;;;;10.86;100.00;101720.84;4954829;29;20052;-75
2022/09/11 04:55:38;;;;;;;52.90;25.27;;;;;;;10.88;100.00;101720.66;4954967;29;20283;-76
2022/09/11 04:58:04;;;;;;;57.83;27.40;;;;;;;10.90;100.00;101730.16;4953033;29;20788;-76
2022/09/11 05:00:29;;;;;;;51.83;24.50;;;;;;;10.86;100.00;101723.53;4954778;29;20091;-75
2022/09/11 05:02:55;;;;;;;49.85;25.42;;;;;;;10.90;100.00;101723.97;4957554;28;20202;-76
2022/09/11 05:05:20;;;;;;;83.73;27.07;;;;;;;10.82;100.00;101716.91;4953367;29;20463;-76
2022/09/11 05:11:13;;;;;;;90.10;26.48;;;;;;;10.82;100.00;101719.59;4954969;29;20090;-76
2022/09/11 05:13:39;;;;;;;73.03;27.73;;;;;;;10.82;100.00;101723.09;4953950;28;20031;-77
2022/09/11 05:19:26;;;;;;;56.28;25.15;;;;;;;10.73;100.00;101729.63;4954792;29;20550;-76
2022/09/11 05:21:52;;;;;;;66.05;26.77;;;;;;;10.71;100.00;101726.31;4952668;28;20070;-77
2022/09/11 05:24:17;;;;;;;55.78;25.50;;;;;;;10.72;100.00;101740.50;4954419;29;20028;-76
2022/09/11 05:30:05;;;;;;;57.88;25.73;;;;;;;10.70;100.00;101756.75;4954776;28;20054;-77
2022/09/11 05:32:30;;;;;;;52.83;25.50;;;;;;;10.68;100.00;101758.78;4954144;29;20035;-77
2022/09/11 05:38:18;;;;;;;55.95;24.80;;;;;;;10.84;100.00;101769.22;4954514;28;20046;-78
2022/09/11 05:44:05;;;;;;;62.88;24.20;;;;;;;10.85;100.00;101776.22;4954636;29;20047;-79
2022/09/11 05:46:30;;;;;;;56.58;25.35;;;;;;;10.98;100.00;101785.38;4952192;29;20039;-79
2022/09/11 05:52:18;;;;;;;62.83;25.23;;;;;;;11.03;100.00;101778.44;4957158;28;20711;-79
2022/09/11 05:58:04;;;;;;;68.18;25.42;;;;;;;11.07;100.00;101776.19;4953932;29;20306;-79
2022/09/11 06:03:52;;;;;;;88.03;27.52;;;;;;;11.32;100.00;101804.19;4954337;29;20081;-78
2022/09/11 06:06:20;;;;;;;67.68;27.13;;;;;;;11.43;100.00;101800.13;4951886;29;20039;-78
2022/09/11 06:08:47;;;;;;;91.93;30.40;;;;;;;11.46;100.00;101805.91;4952556;29;20031;-78
2022/09/11 06:11:14;;;;;;;109.40;30.20;;;;;;;11.54;100.00;101814.81;4951461;29;20054;-79
2022/09/11 06:17:00;;;;;;;94.18;29.98;;;;;;;11.65;100.00;101808.94;4953861;28;20491;-81
2022/09/11 06:19:26;;;;;;;103.60;34.07;;;;;;;11.74;100.00;101816.59;4956602;28;20035;-81
2022/09/11 06:21:51;;;;;;;121.97;33.93;;;;;;;11.83;100.00;101816.47;4952307;29;20679;-79
2022/09/11 06:24:17;;;;;;;102.23;34.87;;;;;;;11.93;100.00;101815.09;4956236;28;20287;-78
2022/09/11 06:30:04;;;;;;;89.15;30.55;;;;;;;12.26;100.00;101822.44;4953810;28;20074;-79
2022/09/11 06:32:29;;;;;;;87.88;31.85;;;;;;;12.43;100.00;101828.25;4952383;29;20064;-79
2022/09/11 06:38:16;;;;;;;103.28;30.73;;;;;;;12.65;100.00;101833.28;4953627;29;20309;-79
2022/09/11 06:40:41;;;;;;;97.00;29.67;;;;;;;12.70;100.00;101838.84;4953414;29;20423;-78
2022/09/11 06:43:07;;;;;;;86.53;29.20;;;;;;;12.78;100.00;101837.03;4956148;28;20291;-78
2022/09/11 06:48:55;;;;;;;79.55;26.65;;;;;;;12.99;100.00;101839.53;4954192;28;20094;-78
2022/09/11 06:54:43;;;;;;;58.72;23.38;;;;;;;13.44;100.00;101856.72;4953418;28;20403;-79
2022/09/11 07:00:30;;;;;;;117.13;26.80;;;;;;;13.75;100.00;101855.22;4953554;29;20451;-79
2022/09/11 07:06:19;;;;;;;79.05;25.13;;;;;;;14.07;100.00;101857.00;4953182;28;20468;-78
2022/09/11 07:12:06;;;;;;;114.85;24.00;;;;;;;14.15;100.00;101859.44;4953559;29;20319;-79
2022/09/11 07:14:33;;;;;;;106.53;25.95;;;;;;;14.13;100.00;101858.00;4955924;28;20039;-78
2022/09/11 07:16:59;;;;;;;75.50;25.35;;;;;;;14.16;100.00;101857.59;4951562;29;20126;-78
2022/09/11 07:19:25;;;;;;;74.18;24.63;;;;;;;14.23;100.00;101850.34;4953482;28;20459;-79
2022/09/11 07:21:50;;;;;;;108.28;26.58;;;;;;;14.41;100.00;101849.63;4955019;28;20071;-80
2022/09/11 07:24:16;;;;;;;69.03;23.63;;;;;;;14.58;100.00;101850.81;4952880;29;20472;-79
2022/09/11 07:26:41;;;;;;;52.28;23.52;;;;;;;14.85;100.00;101840.69;4950962;29;20133;-79
2022/09/11 07:32:29;;;;;;;107.05;26.50;;;;;;;15.39;100.00;101853.53;4952846;29;20373;-82
2022/09/11 07:38:17;;;;;;;60.50;24.17;;;;;;;15.74;100.00;101844.94;4955073;28;20042;-79
2022/09/11 07:44:05;;;;;;;103.07;28.92;;;;;;;16.18;100.00;101862.69;4956283;29;20448;-81
2022/09/11 07:49:52;;;;;;;124.20;28.90;;;;;;;16.79;100.00;101844.69;4959248;28;20053;-79
2022/09/11 07:55:39;;;;;;;42.38;24.83;;;;;;;17.31;100.00;101856.53;4955890;28;20165;-79
2022/09/11 08:01:29;;;;;;;49.08;25.02;;;;;;;17.53;100.00;101865.72;4955757;29;20318;-79
2022/09/11 08:11:15;;;;;;;59.38;26.42;;;;;;;17.77;100.00;101881.97;4955896;29;20046;-78
2022/09/11 08:13:40;;;;;;;64.35;27.50;;;;;;;17.91;100.00;101876.06;4958228;28;20039;-79
2022/09/11 08:22:49;;;;;;;57.05;29.65;;;;;;;18.25;100.00;101884.38;4955838;28;20090;-79
2022/09/11 08:28:37;;;;;;;57.10;30.10;;;;;;;18.24;100.00;101891.69;4955365;29;20341;-79
2022/09/11 08:31:05;;;;;;;57.72;30.90;;;;;;;18.20;100.00;101890.50;4955173;29;20028;-78
2022/09/11 08:36:52;;;;;;;52.17;30.42;;;;;;;18.48;100.00;101897.84;4955744;29;20090;-79
2022/09/11 08:42:42;;;;;;;50.30;29.05;;;;;;;19.22;100.00;101906.00;4955563;29;20139;-79
2022/09/11 08:48:58;;;;;;;49.50;30.23;;;;;;;19.84;100.00;101913.25;4954184;28;20046;-79
2022/09/11 08:54:49;;;;;;;57.60;32.80;;;;;;;19.73;100.00;101909.56;4955718;29;20082;-78
2022/09/11 09:00:57;;;;;;;55.25;33.40;;;;;;;20.52;100.00;101901.13;4954805;29;20415;-76
2022/09/11 09:06:53;;;;;;;52.78;32.47;;;;;;;20.28;100.00;101911.41;4954964;29;20118;-76
2022/09/11 09:09:41;;;;;;;49.75;32.97;;;;;;;20.10;100.00;101917.97;4957529;28;20106;-76
2022/09/11 09:18:54;;;;;;;53.00;31.33;;;;;;;19.66;100.00;101908.91;4954763;28;20125;-76
2022/09/11 09:24:47;;;;;;;37.40;24.50;;;;;;;19.39;100.00;101909.56;4954805;29;20073;-75
2022/09/11 09:30:45;;;;;;;46.58;28.70;;;;;;;19.23;100.00;101918.50;4954592;29;20124;-76
2022/09/11 09:36:33;;;;;;;45.25;30.88;;;;;;;19.37;100.00;101919.84;4954531;29;20039;-75
2022/09/11 09:42:40;;;;;;;44.20;28.00;;;;;;;19.72;100.00;101926.94;4954617;29;20174;-75
2022/09/11 09:48:32;;;;;;;45.00;29.48;;;;;;;19.38;100.00;101929.63;4954593;28;20378;-76
2022/09/11 09:54:22;;;;;;;42.30;28.73;;;;;;;19.19;100.00;101917.34;4954753;29;20050;-75
2022/09/11 10:00:10;;;;;;;40.58;27.80;;;;;;;19.78;100.00;101921.31;4954331;28;20094;-75
2022/09/11 10:05:59;;;;;;;38.55;26.38;;;;;;;20.29;100.00;101919.31;4954590;29;20101;-75
2022/09/11 10:11:51;;;;;;;34.30;24.80;;;;;;;20.40;100.00;101921.09;4954625;29;20177;-74
2022/09/11 10:17:39;;;;;;;45.33;28.00;;;;;;;20.37;100.00;101920.75;4954325;28;20038;-75
2022/09/11 10:23:28;;;;;;;33.03;24.08;;;;;;;20.09;99.89;101922.56;4954473;29;20102;-76
2022/09/11 10:29:28;;;;;;;29.90;18.67;;;;;;;19.91;100.00;101930.19;4954346;28;20054;-75
2022/09/11 10:31:56;;;;;;;26.52;18.23;;;;;;;19.80;98.94;101923.78;4952593;29;20195;-75
2022/09/11 10:37:43;;;;;;;25.25;19.10;;;;;;;19.56;100.00;101917.72;4954271;28;20526;-75
2022/09/11 10:43:37;;;;;;;28.88;18.15;;;;;;;19.36;100.00;101922.78;4954117;29;20094;-76
2022/09/11 10:49:24;;;;;;;25.00;16.70;;;;;;;19.37;100.00;101916.28;4954051;28;20053;-77
2022/09/11 10:52:17;;;;;;;26.67;18.40;;;;;;;19.49;100.00;101926.00;4956595;28;20126;-76
2022/09/11 10:58:12;;;;;;;24.77;18.35;;;;;;;20.16;100.00;101918.84;4953616;28;20086;-75
2022/09/11 11:00:38;;;;;;;26.00;16.88;;;;;;;20.38;98.27;101925.94;4952413;29;20035;-76
2022/09/11 11:03:16;;;;;;;22.30;16.60;;;;;;;20.61;100.00;101927.63;4952349;29;20038;-75
2022/09/11 11:06:00;;;;;;;23.52;17.60;;;;;;;21.02;98.35;101925.31;4956372;28;20047;-76
2022/09/11 11:15:47;;;;;;;22.95;16.63;;;;;;;21.52;95.75;101921.44;4957058;29;20042;-74
2022/09/11 11:21:46;;;;;;;18.65;13.98;;;;;;;21.15;93.20;101918.66;4956814;29;20054;-78
2022/09/11 11:27:54;;;;;;;17.50;12.65;;;;;;;20.70;92.80;101925.25;4956207;28;20336;-77
2022/09/11 11:30:26;;;;;;;18.65;13.48;;;;;;;20.41;96.61;101919.22;4951551;29;20035;-77
2022/09/11 11:33:19;;;;;;;18.83;14.50;;;;;;;20.19;98.16;101915.63;4956380;29;20376;-77
2022/09/11 11:39:22;;;;;;;21.70;14.73;;;;;;;20.38;99.92;101906.91;4956495;28;20039;-77
2022/09/11 11:42:04;;;;;;;21.33;15.73;;;;;;;20.32;97.55;101898.97;4958930;28;20066;-76
2022/09/11 11:44:38;;;;;;;;;;;;;;;20.49;100.00;101909.78;4956409;29;20027;-77
2022/09/11 11:47:05;;;;;;;19.73;14.50;;;;;;;20.48;96.02;101908.97;4958686;28;20013;-77
2022/09/11 11:49:59;;;;;;;18.73;13.85;;;;;;;20.55;99.90;101904.19;4954419;29;20063;-77
2022/09/11 11:52:31;;;;;;;16.92;11.82;;;;;;;20.68;93.69;101902.94;4956267;28;20058;-76
2022/09/11 11:55:31;;;;;;;15.93;12.57;;;;;;;20.79;90.63;101901.13;4957321;28;20094;-76
2022/09/11 11:58:23;;;;;;;15.43;11.13;;;;;;;20.98;88.06;101895.09;4953863;29;20502;-77
2022/09/11 12:00:56;;;;;;;16.65;10.75;;;;;;;20.85;85.08;101887.38;4955292;29;20407;-76
2022/09/11 12:04:11;;;;;;;14.85;11.45;;;;;;;20.83;87.36;101897.69;4955609;29;20055;-76
2022/09/11 12:06:37;;;;;;;14.95;10.60;;;;;;;20.82;88.36;101895.22;4950424;29;20105;-76
2022/09/11 12:09:04;;;;;;;14.48;9.35;;;;;;;20.81;85.83;101891.66;4955538;29;20607;-76
2022/09/11 12:11:31;;;;;;;15.55;12.13;;;;;;;20.78;84.29;101896.78;4953708;29;20054;-76
2022/09/11 12:13:57;;;;;;;13.88;11.10;;;;;;;20.76;86.96;101888.88;4955493;29;20424;-76
2022/09/11 12:16:27;;;;;;;14.82;11.55;;;;;;;20.71;84.72;101889.66;4955907;28;20111;-76
2022/09/11 12:19:14;;;;;;;12.73;9.75;;;;;;;20.68;86.01;101895.59;4956959;28;20043;-76
2022/09/11 12:22:04;;;;;;;13.88;9.98;;;;;;;20.75;87.01;101889.16;4954088;29;20082;-76
2022/09/11 12:24:53;;;;;;;13.60;11.07;;;;;;;20.80;87.47;101886.47;4950162;29;20484;-75
2022/09/11 12:27:33;;;;;;;11.98;10.05;;;;;;;21.18;85.30;101897.19;4955264;29;20514;-76
2022/09/11 12:30:17;;;;;;;11.48;9.32;;;;;;;22.29;81.24;101890.06;4953437;29;20117;-76
2022/09/11 12:32:51;;;;;;;14.73;8.48;;;;;;;24.40;71.25;101868.41;4953901;29;20066;-77
2022/09/11 12:35:19;;;;;;;11.32;9.25;;;;;;;26.43;64.15;101886.84;4958013;28;20039;-77
2022/09/11 12:37:52;;;;;;;15.20;9.45;;;;;;;27.49;56.76;101880.81;4955051;28;20435;-76
2022/09/11 12:40:31;;;;;;;13.25;10.35;;;;;;;27.66;55.68;101872.81;4956351;28;20357;-77
2022/09/11 12:43:05;;;;;;;13.18;10.35;;;;;;;28.05;55.48;101875.06;4953783;29;20114;-76
2022/09/11 12:45:37;;;;;;;15.02;9.55;;;;;;;28.18;53.86;101873.41;4954993;29;20386;-77
2022/09/11 12:48:09;;;;;;;11.55;8.45;;;;;;;27.87;51.70;101873.25;4953120;29;20138;-77
2022/09/11 12:50:36;;;;;;;11.30;8.60;;;;;;;27.08;51.33;101874.09;4953683;29;20035;-76
2022/09/11 12:53:04;;;;;;;11.35;7.95;;;;;;;25.75;54.19;101862.44;4953121;29;20146;-77
2022/09/11 12:55:39;;;;;;;9.20;7.20;;;;;;;25.52;58.67;101859.38;4955012;28;20032;-77
2022/09/11 12:58:19;;;;;;;11.07;7.70;;;;;;;26.77;58.56;101865.50;4955108;28;20039;-77
2022/09/11 13:00:49;;;;;;;9.80;8.10;;;;;;;27.69;52.49;101851.03;4953429;29;20396;-77
2022/09/11 13:03:25;;;;;;;9.38;7.63;;;;;;;28.04;55.16;101862.41;4953399;29;20391;-77
2022/09/11 13:06:09;;;;;;;7.93;6.65;;;;;;;27.81;56.58;101846.97;4952875;29;20043;-77
2022/09/11 13:08:46;;;;;;;10.48;7.80;;;;;;;26.92;52.83;101853.47;4954670;28;20114;-76
2022/09/11 13:11:48;;;;;;;11.43;9.18;;;;;;;25.79;59.71;101849.81;4957527;28;20047;-77
2022/09/11 13:14:48;;;;;;;8.93;7.88;;;;;;;25.05;61.90;101845.56;4953452;29;20086;-78
2022/09/11 13:17:27;;;;;;;11.13;8.20;;;;;;;25.02;61.42;101845.03;4957365;28;20130;-77
2022/09/11 13:20:08;;;;;;;11.93;8.88;;;;;;;24.67;63.58;101829.69;4954564;28;20499;-78
2022/09/11 13:22:34;;;;;;;11.95;10.20;;;;;;;23.96;62.54;101831.94;4957416;28;20039;-76
2022/09/11 13:25:10;;;;;;;13.95;11.10;;;;;;;23.51;66.93;101833.72;4953168;29;20388;-77
2022/09/11 13:27:37;;;;;;;11.98;10.05;;;;;;;23.20;67.43;101823.94;4954247;29;20444;-77
2022/09/11 13:30:06;;;;;;;14.65;11.65;;;;;;;22.97;70.36;101819.84;4957264;28;20043;-78
2022/09/11 13:32:32;;;;;;;13.00;10.82;;;;;;;22.79;68.47;101812.97;4954281;29;20058;-77
2022/09/11 13:35:02;;;;;;;14.60;9.93;;;;;;;22.99;69.62;101815.75;4956785;28;20181;-77
2022/09/11 13:37:37;;;;;;;13.45;10.82;;;;;;;23.04;66.97;101809.47;4954292;28;20046;-78
2022/09/11 13:40:06;;;;;;;12.82;9.95;;;;;;;23.51;66.82;101830.97;4955457;28;20027;-77
2022/09/11 13:42:31;;;;;;;13.10;10.23;;;;;;;24.12;62.11;101827.25;4955099;28;20113;-76
2022/09/11 13:45:00;;;;;;;10.82;9.10;;;;;;;24.55;64.10;101814.72;4952813;29;20484;-77
2022/09/11 13:47:29;;;;;;;11.95;8.15;;;;;;;24.62;63.00;101810.56;4952217;29;20114;-77
2022/09/11 13:50:00;;;;;;;8.43;7.03;;;;;;;24.36;65.17;101811.84;4952757;29;20031;-77
2022/09/11 13:52:29;;;;;;;9.15;7.60;;;;;;;24.17;67.66;101805.34;4956938;28;20079;-77
2022/09/11 13:54:57;;;;;;;12.05;8.73;;;;;;;23.96;65.16;101796.44;4954293;28;20027;-77
2022/09/11 13:57:24;;;;;;;12.75;8.57;;;;;;;23.77;68.63;101788.88;4952712;29;20042;-77
2022/09/11 13:59:57;;;;;;;12.52;9.40;;;;;;;23.60;69.33;101795.75;4956778;28;20042;-78
2022/09/11 14:02:39;;;;;;;;;;;;;;;23.68;69.80;101797.91;4954212;28;20047;-77
2022/09/11 14:05:10;;;;;;;12.73;9.18;;;;;;;23.35;68.58;101785.69;4952214;29;19978;-78
2022/09/11 14:07:55;;;;;;;12.55;10.32;;;;;;;22.97;72.51;101784.38;4952524;29;20519;-77
2022/09/11 14:10:45;;;;;;;16.17;11.57;;;;;;;22.74;69.11;101781.06;4956865;28;20051;-76
2022/09/11 14:13:23;;;;;;;14.88;11.77;;;;;;;22.21;72.60;101779.63;4953720;29;20159;-78
2022/09/11 14:16:13;;;;;;;14.88;11.43;;;;;;;22.08;74.10;101785.59;4955886;28;20089;-77
2022/09/11 14:18:44;;;;;;;13.32;11.00;;;;;;;21.65;74.04;101777.50;4953794;28;20031;-78
2022/09/11 14:21:13;;;;;;;12.93;10.68;;;;;;;21.46;73.04;101773.59;4953771;29;20027;-78
2022/09/11 14:23:46;;;;;;;11.73;10.35;;;;;;;21.29;77.42;101778.41;4956552;28;20120;-78
2022/09/11 14:26:15;;;;;;;13.32;10.93;;;;;;;21.14;76.21;101775.56;4953567;29;20091;-76
2022/09/11 14:28:50;;;;;;;12.77;10.50;;;;;;;21.22;76.17;101783.22;4956702;28;20460;-77
2022/09/11 14:31:27;;;;;;;13.98;11.38;;;;;;;21.16;77.57;101779.66;4952312;29;20540;-77
2022/09/11 14:34:09;;;;;;;14.43;11.45;;;;;;;21.04;77.85;101777.09;4953295;28;20039;-77
2022/09/11 14:36:40;;;;;;;;;;;;;;;21.12;77.70;101783.97;4954005;29;20031;-77
2022/09/11 14:39:26;;;;;;;16.15;12.00;;;;;;;20.88;77.00;101769.94;4953534;29;19914;-77
2022/09/11 14:41:54;;;;;;;13.43;12.02;;;;;;;20.73;79.59;101770.59;4953296;29;20050;-77
2022/09/11 14:47:43;;;;;;;16.33;11.65;;;;;;;20.41;81.23;101759.72;4955391;28;20050;-78
2022/09/11 14:50:11;;;;;;;13.52;11.27;;;;;;;20.38;81.74;101779.22;4956733;29;20483;-77
2022/09/11 14:52:38;;;;;;;12.70;10.02;;;;;;;20.35;86.29;101774.31;4959566;28;20043;-77
2022/09/11 14:55:05;;;;;;;14.63;11.13;;;;;;;20.30;85.30;101770.72;4956588;29;20028;-77
2022/09/11 14:57:33;;;;;;;11.57;10.38;;;;;;;20.29;83.16;101764.47;4959597;28;20054;-77
2022/09/11 14:59:58;;;;;;;11.95;9.65;;;;;;;20.24;82.91;101772.56;4955302;29;20122;-77
2022/09/11 15:05:49;;;;;;;12.25;9.88;;;;;;;20.49;83.27;101768.47;4956767;28;20042;-78
2022/09/11 15:08:14;;;;;;;10.48;8.63;;;;;;;20.55;84.04;101765.56;4955093;29;20033;-77
2022/09/11 15:10:41;;;;;;;13.55;9.15;;;;;;;20.61;81.31;101763.72;4954800;29;20129;-77
2022/09/11 15:13:06;;;;;;;13.20;10.27;;;;;;;20.66;83.16;101763.75;4956385;28;20024;-78
2022/09/11 15:15:33;;;;;;;10.65;8.70;;;;;;;20.73;82.40;101758.91;4959325;28;20043;-78
2022/09/11 15:17:59;;;;;;;11.45;8.98;;;;;;;20.82;82.93;101751.13;4955021;29;20035;-78
2022/09/11 15:20:26;;;;;;;10.60;7.78;;;;;;;20.84;81.03;101755.22;4956346;28;20035;-78
2022/09/11 15:22:52;;;;;;;10.85;7.25;;;;;;;20.86;82.37;101752.25;4954756;29;20078;-78
2022/09/11 15:25:17;;;;;;;9.40;6.97;;;;;;;20.81;78.59;101744.00;4954922;29;20039;-77
2022/09/11 15:27:42;;;;;;;7.78;6.82;;;;;;;20.68;80.87;101726.25;4954357;29;20542;-78
2022/09/11 15:30:08;;;;;;;8.70;6.53;;;;;;;20.79;79.25;101743.47;4956269;28;20388;-78
2022/09/11 15:32:34;;;;;;;7.28;6.57;;;;;;;20.68;77.52;101727.06;4954846;29;20035;-78
2022/09/11 15:34:59;;;;;;;8.73;6.07;;;;;;;20.79;80.22;101740.75;4959017;28;20047;-78
2022/09/11 15:40:50;;;;;;;6.95;5.88;;;;;;;20.87;76.95;101748.44;4956286;29;20058;-78
2022/09/11 15:43:15;;;;;;;7.47;5.30;;;;;;;20.85;78.42;101732.38;4954614;29;20038;-77
2022/09/11 15:45:41;;;;;;;9.43;5.70;;;;;;;21.02;80.79;101743.09;4954095;29;20055;-77
2022/09/11 15:48:07;;;;;;;8.10;5.25;;;;;;;21.01;81.76;101728.69;4954846;29;20285;-77
2022/09/11 15:50:32;;;;;;;8.73;5.57;;;;;;;20.95;74.90;101735.16;4955284;28;20032;-77
2022/09/11 15:52:57;;;;;;;6.47;5.60;;;;;;;20.86;75.80;101725.88;4958046;28;20054;-77
2022/09/11 15:55:25;;;;;;;6.67;5.27;;;;;;;20.79;79.10;101719.81;4954509;29;20282;-78
2022/09/11 15:57:50;;;;;;;11.00;5.55;;;;;;;20.80;78.71;101718.72;4958235;28;20294;-77
2022/09/11 16:00:16;;;;;;;7.50;5.23;;;;;;;20.87;75.49;101721.25;4955772;28;20023;-77
2022/09/11 16:02:41;;;;;;;7.85;5.53;;;;;;;20.92;76.91;101730.25;4957540;28;20743;-77
2022/09/11 16:05:06;;;;;;;7.45;5.18;;;;;;;20.94;74.09;101738.16;4954454;29;20114;-77